createdAt,value
2022-08-30T00:02:22.306Z,97.90
2022-08-30T00:04:54.168Z,97.90
2022-08-30T00:07:21.592Z,98.00
2022-08-30T00:09:48.902Z,98.10
2022-08-30T00:12:16.360Z,98.00
2022-08-30T00:14:43.640Z,98.00
2022-08-30T00:17:10.918Z,98.10
2022-08-30T00:19:38.552Z,98.10
2022-08-30T00:22:07.325Z,98.10
2022-08-30T00:24:34.640Z,98.10
2022-08-30T00:27:02.099Z,98.10
2022-08-30T00:29:30.167Z,98.20
2022-08-30T00:31:57.316Z,98.20
2022-08-30T00:34:24.746Z,98.20
2022-08-30T00:36:51.894Z,98.20
2022-08-30T00:39:19.030Z,98.30
2022-08-30T00:41:46.763Z,98.30
2022-08-30T00:44:14.010Z,98.30
2022-08-30T00:46:41.322Z,98.30
2022-08-30T00:49:12.833Z,98.40
2022-08-30T00:51:41.821Z,98.30
2022-08-30T00:54:09.402Z,98.40
2022-08-30T00:56:37.279Z,98.40
2022-08-30T00:59:07.753Z,98.40
2022-08-30T01:01:37.466Z,98.40
2022-08-30T01:04:09.323Z,98.40
2022-08-30T01:06:37.402Z,98.50
2022-08-30T01:09:05.779Z,98.50
2022-08-30T01:11:37.923Z,98.50
2022-08-30T01:14:06.910Z,98.50
2022-08-30T01:16:37.412Z,98.50
2022-08-30T01:19:17.463Z,98.50
2022-08-30T01:22:03.037Z,98.60
2022-08-30T01:24:31.566Z,98.90
2022-08-30T01:26:59.294Z,98.60
2022-08-30T01:29:27.598Z,98.70
2022-08-30T01:31:54.794Z,98.70
2022-08-30T01:34:22.517Z,98.70
2022-08-30T01:36:50.540Z,98.70
2022-08-30T01:39:19.071Z,98.80
2022-08-30T01:41:47.182Z,98.80
2022-08-30T01:44:15.350Z,98.80
2022-08-30T01:46:47.530Z,98.90
2022-08-30T01:49:27.652Z,98.90
2022-08-30T01:52:00.481Z,98.90
2022-08-30T01:54:36.911Z,98.90
2022-08-30T01:57:09.979Z,99.00
2022-08-30T01:59:40.641Z,99.00
2022-08-30T02:02:08.522Z,99.00
2022-08-30T02:04:36.735Z,99.00
2022-08-30T02:07:05.211Z,99.00
2022-08-30T02:09:32.461Z,99.00
2022-08-30T02:11:59.694Z,99.00
2022-08-30T02:14:27.641Z,99.10
2022-08-30T02:16:55.004Z,99.10
2022-08-30T02:19:22.085Z,99.10
2022-08-30T02:21:50.066Z,99.10
2022-08-30T02:24:17.233Z,99.20
2022-08-30T02:26:44.918Z,99.20
2022-08-30T02:29:12.743Z,99.20
2022-08-30T02:31:39.996Z,99.30
2022-08-30T02:34:08.012Z,99.30
2022-08-30T02:36:36.732Z,99.30
2022-08-30T02:39:04.088Z,99.30
2022-08-30T02:41:31.449Z,99.40
2022-08-30T02:44:00.327Z,99.40
2022-08-30T02:46:33.294Z,99.40
2022-08-30T02:49:29.890Z,99.50
2022-08-30T02:51:50.760Z,99.40
2022-08-30T02:54:19.782Z,99.40
2022-08-30T02:56:48.487Z,99.40
2022-08-30T02:59:18.134Z,99.40
2022-08-30T03:01:45.859Z,99.50
2022-08-30T03:04:13.049Z,99.60
2022-08-30T03:06:40.354Z,99.60
2022-08-30T03:09:07.763Z,99.70
2022-08-30T03:11:35.589Z,99.70
2022-08-30T03:14:02.774Z,99.70
2022-08-30T03:16:30.495Z,99.80
2022-08-30T03:18:57.653Z,99.80
2022-08-30T03:21:24.834Z,99.80
2022-08-30T03:23:52.386Z,99.90
2022-08-30T03:26:19.457Z,99.80
2022-08-30T03:28:46.547Z,99.90
2022-08-30T03:31:14.110Z,99.90
2022-08-30T03:33:41.918Z,99.90
2022-08-30T03:36:10.676Z,99.90
2022-08-30T03:38:39.187Z,99.90
2022-08-30T03:41:06.523Z,99.90
2022-08-30T03:43:35.284Z,99.90
2022-08-30T03:46:04.252Z,99.90
2022-08-30T03:48:31.889Z,99.90
2022-08-30T03:50:59.008Z,99.90
2022-08-30T03:53:27.291Z,99.90
2022-08-30T03:55:55.484Z,99.90
2022-08-30T03:58:24.826Z,99.90
2022-08-30T04:00:52.507Z,99.90
2022-08-30T04:03:25.693Z,99.90
2022-08-30T04:05:55.068Z,99.90
2022-08-30T04:08:24.472Z,99.90
2022-08-30T04:10:53.374Z,99.90
2022-08-30T04:13:22.728Z,99.90
2022-08-30T04:15:51.015Z,99.90
2022-08-30T04:18:18.288Z,99.90
2022-08-30T04:20:45.480Z,99.90
2022-08-30T04:23:13.545Z,99.90
2022-08-30T04:25:41.862Z,99.90
2022-08-30T04:28:10.172Z,99.90
2022-08-30T04:30:45.573Z,99.90
2022-08-30T04:33:14.972Z,99.90
2022-08-30T04:35:46.749Z,99.90
2022-08-30T04:38:14.964Z,99.90
2022-08-30T04:40:48.522Z,99.90
2022-08-30T04:43:16.820Z,99.90
2022-08-30T04:45:44.259Z,99.90
2022-08-30T04:48:11.627Z,99.90
2022-08-30T04:50:39.639Z,99.90
2022-08-30T04:53:15.091Z,99.90
2022-08-30T04:55:44.251Z,99.90
2022-08-30T04:58:12.093Z,99.90
2022-08-30T05:00:42.157Z,99.90
2022-08-30T05:03:10.051Z,99.90
2022-08-30T05:05:39.745Z,99.90
2022-08-30T05:08:13.570Z,99.90
2022-08-30T05:10:44.929Z,99.90
2022-08-30T05:13:13.437Z,99.90
2022-08-30T05:15:40.807Z,99.90
2022-08-30T05:18:11.374Z,99.90
2022-08-30T05:20:42.723Z,99.90
2022-08-30T05:23:11.179Z,99.90
2022-08-30T05:25:41.597Z,99.90
2022-08-30T05:28:09.505Z,99.90
2022-08-30T05:30:38.257Z,99.90
2022-08-30T05:33:05.672Z,99.90
2022-08-30T05:35:32.849Z,99.90
2022-08-30T05:38:00.841Z,99.90
2022-08-30T05:40:29.247Z,99.90
2022-08-30T05:42:56.564Z,99.90
2022-08-30T05:45:24.159Z,99.90
2022-08-30T05:47:51.235Z,99.90
2022-08-30T05:50:18.557Z,99.90
2022-08-30T05:52:46.067Z,99.90
2022-08-30T05:55:13.481Z,99.90
2022-08-30T05:57:42.021Z,99.90
2022-08-30T06:00:15.437Z,99.90
2022-08-30T06:02:43.231Z,99.90
2022-08-30T06:05:14.345Z,99.90
2022-08-30T06:07:43.427Z,99.90
2022-08-30T06:10:12.407Z,99.90
2022-08-30T06:12:41.502Z,99.90
2022-08-30T06:15:09.361Z,99.90
2022-08-30T06:17:36.770Z,99.90
2022-08-30T06:20:04.939Z,99.90
2022-08-30T06:22:32.134Z,99.90
2022-08-30T06:24:59.212Z,99.90
2022-08-30T06:27:26.597Z,99.90
2022-08-30T06:29:53.834Z,99.90
2022-08-30T06:32:21.054Z,99.90
2022-08-30T06:34:49.357Z,99.90
2022-08-30T06:37:21.931Z,99.90
2022-08-30T06:39:59.389Z,99.90
2022-08-30T06:42:34.943Z,99.90
2022-08-30T06:45:11.291Z,99.90
2022-08-30T06:47:40.681Z,99.90
2022-08-30T06:50:11.883Z,99.60
2022-08-30T06:52:43.063Z,99.40
2022-08-30T06:55:16.380Z,99.40
2022-08-30T06:57:44.849Z,99.10
2022-08-30T07:00:16.483Z,99.00
2022-08-30T07:02:43.860Z,98.90
2022-08-30T07:05:15.389Z,98.70
2022-08-30T07:07:44.308Z,98.70
2022-08-30T07:10:11.548Z,98.70
2022-08-30T07:12:38.747Z,98.60
2022-08-30T07:15:07.861Z,98.60
2022-08-30T07:17:53.946Z,98.40
2022-08-30T07:20:21.601Z,98.30
2022-08-30T07:22:49.037Z,98.00
2022-08-30T07:25:16.638Z,98.00
2022-08-30T07:27:47.629Z,97.90
2022-08-30T07:30:14.948Z,98.00
2022-08-30T07:32:42.150Z,97.90
2022-08-30T07:35:10.220Z,98.00
2022-08-30T07:37:37.472Z,97.90
2022-08-30T07:40:06.395Z,97.80
2022-08-30T07:42:34.078Z,97.70
2022-08-30T07:45:03.298Z,97.50
2022-08-30T07:47:30.579Z,97.50
2022-08-30T07:50:00.743Z,97.30
2022-08-30T07:52:30.728Z,97.20
2022-08-30T07:55:00.145Z,97.10
2022-08-30T07:57:31.559Z,97.30
2022-08-30T07:59:59.008Z,97.20
2022-08-30T08:02:27.060Z,97.20
2022-08-30T08:04:54.601Z,97.00
2022-08-30T08:07:21.789Z,96.80
2022-08-30T08:09:49.788Z,96.80
2022-08-30T08:12:17.081Z,97.20
2022-08-30T08:14:44.470Z,96.90
2022-08-30T08:17:12.554Z,96.60
2022-08-30T08:19:39.802Z,96.60
2022-08-30T08:22:20.684Z,96.60
2022-08-30T08:24:49.777Z,96.70
2022-08-30T08:27:17.546Z,96.60
2022-08-30T08:29:47.451Z,96.40
2022-08-30T08:32:15.702Z,96.40
2022-08-30T08:34:42.809Z,96.30
2022-08-30T08:37:09.962Z,96.20
2022-08-30T08:39:37.499Z,96.20
2022-08-30T08:42:18.699Z,95.80
2022-08-30T08:44:59.669Z,95.70
2022-08-30T08:47:53.776Z,95.50
2022-08-30T08:50:32.944Z,95.50
2022-08-30T08:53:45.955Z,95.20
2022-08-30T08:56:18.612Z,95.00
2022-08-30T08:58:54.492Z,94.90
2022-08-30T09:01:28.707Z,94.90
2022-08-30T09:03:59.465Z,94.60
2022-08-30T09:07:05.599Z,94.60
2022-08-30T09:09:39.526Z,94.60
2022-08-30T09:12:12.402Z,94.10
2022-08-30T09:14:55.391Z,94.10
2022-08-30T09:17:23.969Z,94.10
2022-08-30T09:20:00.385Z,94.10
2022-08-30T09:22:39.699Z,93.60
2022-08-30T09:25:12.530Z,93.30
2022-08-30T09:27:44.778Z,93.50
2022-08-30T09:30:35.303Z,92.90
2022-08-30T09:33:20.514Z,93.00
2022-08-30T09:35:52.203Z,92.90
2022-08-30T09:38:35.037Z,92.70
2022-08-30T09:41:43.516Z,92.60
2022-08-30T09:44:19.338Z,92.00
2022-08-30T09:46:53.131Z,91.80
2022-08-30T09:49:34.282Z,91.60
2022-08-30T09:52:29.374Z,91.60
2022-08-30T09:55:34.566Z,91.80
2022-08-30T09:58:42.278Z,91.50
2022-08-30T10:02:45.005Z,91.00
2022-08-30T10:05:21.604Z,90.70
2022-08-30T10:08:12.971Z,91.20
2022-08-30T10:10:59.379Z,91.60
2022-08-30T10:14:05.914Z,91.20
2022-08-30T10:16:53.400Z,91.00
2022-08-30T10:19:40.039Z,91.10
2022-08-30T10:22:34.315Z,91.10
2022-08-30T10:25:19.547Z,91.30
2022-08-30T10:28:08.676Z,91.40
2022-08-30T10:30:44.203Z,91.30
2022-08-30T10:33:22.923Z,91.20
2022-08-30T10:36:02.444Z,91.00
2022-08-30T10:38:37.807Z,90.90
2022-08-30T10:41:39.985Z,90.60
2022-08-30T10:44:26.487Z,90.80
2022-08-30T10:47:42.130Z,91.00
2022-08-30T10:50:24.300Z,90.60
2022-08-30T10:53:03.562Z,90.50
2022-08-30T10:55:37.504Z,90.50
2022-08-30T10:58:06.584Z,88.70
2022-08-30T11:00:41.889Z,88.50
2022-08-30T11:03:49.644Z,88.80
2022-08-30T11:06:54.041Z,89.70
2022-08-30T11:09:38.087Z,90.00
2022-08-30T11:12:49.506Z,89.80
2022-08-30T11:15:25.554Z,90.10
2022-08-30T11:18:05.127Z,90.00
2022-08-30T11:20:45.136Z,90.30
2022-08-30T11:23:33.274Z,90.50
2022-08-30T11:26:16.969Z,90.30
2022-08-30T11:28:48.287Z,89.50
2022-08-30T11:31:18.815Z,87.20
2022-08-30T11:33:53.219Z,87.40
2022-08-30T11:36:37.304Z,86.60
2022-08-30T11:39:11.875Z,86.90
2022-08-30T11:41:48.015Z,87.40
2022-08-30T11:44:21.683Z,88.10
2022-08-30T11:46:55.002Z,88.70
2022-08-30T11:49:23.459Z,88.40
2022-08-30T11:52:26.597Z,88.60
2022-08-30T11:55:25.671Z,88.80
2022-08-30T11:58:12.201Z,88.20
2022-08-30T12:00:51.522Z,87.30
2022-08-30T12:03:33.901Z,87.00
2022-08-30T12:06:09.625Z,87.00
2022-08-30T12:08:47.730Z,86.60
2022-08-30T12:12:00.409Z,85.80
2022-08-30T12:14:47.732Z,83.20
2022-08-30T12:17:46.230Z,83.20
2022-08-30T12:20:22.558Z,81.60
2022-08-30T12:22:53.512Z,78.40
2022-08-30T12:25:35.063Z,77.40
2022-08-30T12:28:25.129Z,77.40
2022-08-30T12:30:54.209Z,77.80
2022-08-30T12:33:36.645Z,79.20
2022-08-30T12:36:33.361Z,79.90
2022-08-30T12:39:18.215Z,79.90
2022-08-30T12:41:46.616Z,80.80
2022-08-30T12:44:24.179Z,81.00
2022-08-30T12:47:03.025Z,81.30
2022-08-30T12:49:36.554Z,80.90
2022-08-30T12:52:35.561Z,81.00
2022-08-30T12:55:19.600Z,79.50
2022-08-30T12:58:11.181Z,79.50
2022-08-30T13:00:43.042Z,78.80
2022-08-30T13:03:36.796Z,79.50
2022-08-30T13:06:08.238Z,80.30
2022-08-30T13:08:51.024Z,80.80
2022-08-30T13:11:21.817Z,81.60
2022-08-30T13:13:58.317Z,82.00
2022-08-30T13:16:37.116Z,81.90
2022-08-30T13:19:36.712Z,82.10
2022-08-30T13:22:05.448Z,82.60
2022-08-30T13:24:34.019Z,82.50
2022-08-30T13:27:09.925Z,81.70
2022-08-30T13:29:38.222Z,80.90
2022-08-30T13:32:05.669Z,80.20
2022-08-30T13:40:17.406Z,82.30
2022-08-30T13:42:45.789Z,82.50
2022-08-30T13:48:06.563Z,82.10
2022-08-30T13:50:33.945Z,82.00
2022-08-30T13:53:01.301Z,81.50
2022-08-30T13:55:29.080Z,82.50
2022-08-30T13:57:57.579Z,83.00
2022-08-30T14:00:27.375Z,83.40
2022-08-30T14:02:57.657Z,82.80
2022-08-30T14:06:15.920Z,82.10
2022-08-30T14:08:48.072Z,82.00
2022-08-30T14:11:20.868Z,79.80
2022-08-30T14:16:42.578Z,78.80
2022-08-30T14:19:12.991Z,77.50
2022-08-30T14:21:40.648Z,77.30
2022-08-30T14:24:08.593Z,76.70
2022-08-30T14:26:43.900Z,77.90
2022-08-30T14:29:17.679Z,78.00
2022-08-30T14:31:45.763Z,79.20
2022-08-30T14:34:15.308Z,80.00
2022-08-30T14:36:46.082Z,80.80
2022-08-30T14:39:18.359Z,81.20
2022-08-30T14:41:50.901Z,82.40
2022-08-30T14:44:21.393Z,81.70
2022-08-30T14:46:49.497Z,82.50
2022-08-30T14:49:20.097Z,82.40
2022-08-30T14:51:48.652Z,83.00
2022-08-30T14:54:21.445Z,82.90
2022-08-30T14:56:49.296Z,83.30
2022-08-30T14:59:16.863Z,83.20
2022-08-30T15:01:44.526Z,83.40
2022-08-30T15:04:15.188Z,83.70
2022-08-30T15:06:47.960Z,83.80
2022-08-30T15:09:23.537Z,84.00
2022-08-30T15:11:54.923Z,84.10
2022-08-30T15:14:23.992Z,84.40
2022-08-30T15:16:55.289Z,84.70
2022-08-30T15:19:22.896Z,84.80
2022-08-30T15:21:51.555Z,85.30
2022-08-30T15:24:25.005Z,85.10
2022-08-30T15:27:00.411Z,85.30
2022-08-30T15:29:31.509Z,85.60
2022-08-30T15:32:02.523Z,85.70
2022-08-30T15:34:31.562Z,85.90
2022-08-30T15:36:58.916Z,86.10
2022-08-30T15:39:27.270Z,86.30
2022-08-30T15:41:58.446Z,86.40
2022-08-30T15:44:31.435Z,86.50
2022-08-30T15:46:59.476Z,86.50
2022-08-30T15:49:26.598Z,86.50
2022-08-30T15:51:54.661Z,86.30
2022-08-30T15:54:23.883Z,85.50
2022-08-30T15:56:59.470Z,85.20
2022-08-30T15:59:29.639Z,84.80
2022-08-30T16:02:06.402Z,84.70
2022-08-30T16:04:34.471Z,85.20
2022-08-30T16:07:01.686Z,85.40
2022-08-30T16:09:30.204Z,85.30
2022-08-30T16:12:02.114Z,85.00
2022-08-30T16:14:30.545Z,84.80
2022-08-30T16:16:58.150Z,84.70
2022-08-30T16:19:26.786Z,84.80
2022-08-30T16:21:54.086Z,84.90
2022-08-30T16:24:23.471Z,84.90
2022-08-30T16:26:51.247Z,84.90
2022-08-30T16:29:18.881Z,84.70
2022-08-30T16:31:48.166Z,84.80
2022-08-30T16:34:20.238Z,85.20
2022-08-30T16:36:48.018Z,85.20
2022-08-30T16:39:16.108Z,85.50
2022-08-30T16:41:45.430Z,85.60
2022-08-30T16:44:15.912Z,86.00
2022-08-30T16:46:52.486Z,86.20
2022-08-30T16:49:25.559Z,86.40
2022-08-30T16:51:54.097Z,86.60
2022-08-30T16:54:22.704Z,86.70
2022-08-30T16:56:50.311Z,86.80
2022-08-30T16:59:17.872Z,87.10
2022-08-30T17:01:46.549Z,87.10
2022-08-30T17:04:18.469Z,87.20
2022-08-30T17:06:49.752Z,87.30
2022-08-30T17:09:19.126Z,87.40
2022-08-30T17:11:46.922Z,87.40
2022-08-30T17:14:19.958Z,87.60
2022-08-30T17:16:57.454Z,87.60
2022-08-30T17:19:26.982Z,87.70
2022-08-30T17:21:58.060Z,87.80
2022-08-30T17:24:26.815Z,88.00
2022-08-30T17:26:54.547Z,88.30
2022-08-30T17:29:22.255Z,88.40
2022-08-30T17:31:51.193Z,88.60
2022-08-30T17:34:22.887Z,88.80
2022-08-30T17:36:54.791Z,88.90
2022-08-30T17:39:23.466Z,89.00
2022-08-30T17:41:51.539Z,89.20
2022-08-30T17:44:25.821Z,89.30
2022-08-30T17:46:55.316Z,89.40
2022-08-30T17:49:25.003Z,89.60
2022-08-30T17:51:56.621Z,89.80
2022-08-30T17:54:26.834Z,90.00
2022-08-30T17:56:55.704Z,90.00
2022-08-30T17:59:25.175Z,90.10
2022-08-30T18:02:14.707Z,90.20
2022-08-30T18:04:43.402Z,90.20
2022-08-30T18:07:12.998Z,90.30
2022-08-30T18:09:42.985Z,90.30
2022-08-30T18:12:12.688Z,90.40
2022-08-30T18:14:42.633Z,90.40
2022-08-30T18:17:10.229Z,90.50
2022-08-30T18:19:45.846Z,90.50
2022-08-30T18:22:16.151Z,90.60
2022-08-30T18:24:44.486Z,90.60
2022-08-30T18:27:12.011Z,90.70
2022-08-30T18:29:41.314Z,90.70
2022-08-30T18:32:09.194Z,90.80
2022-08-30T18:34:36.454Z,90.80
2022-08-30T18:37:05.412Z,90.80
2022-08-30T18:39:38.714Z,90.90
2022-08-30T18:42:09.805Z,91.00
2022-08-30T18:44:37.295Z,91.00
2022-08-30T18:47:06.671Z,91.00
2022-08-30T18:49:36.803Z,91.10
2022-08-30T18:52:09.702Z,91.20
2022-08-30T18:54:42.173Z,91.20
2022-08-30T18:57:10.009Z,91.20
2022-08-30T18:59:39.061Z,91.30
2022-08-30T19:02:14.281Z,91.30
2022-08-30T19:04:43.494Z,91.40
2022-08-30T19:07:15.561Z,91.50
2022-08-30T19:09:45.278Z,91.60
2022-08-30T19:12:13.238Z,91.70
2022-08-30T19:14:40.796Z,91.80
2022-08-30T19:17:08.482Z,91.80
2022-08-30T19:19:47.459Z,91.80
2022-08-30T19:22:19.244Z,91.80
2022-08-30T19:24:49.633Z,91.80
2022-08-30T19:27:37.374Z,91.80
2022-08-30T19:30:21.629Z,91.90
2022-08-30T19:32:53.229Z,92.00
2022-08-30T19:35:30.429Z,92.00
2022-08-30T19:37:59.738Z,92.00
2022-08-30T19:40:27.681Z,92.10
2022-08-30T19:42:55.348Z,92.10
2022-08-30T19:45:24.228Z,92.20
2022-08-30T19:47:53.184Z,92.20
2022-08-30T19:50:22.346Z,92.20
2022-08-30T19:52:54.658Z,92.30
2022-08-30T19:55:30.023Z,92.30
2022-08-30T19:57:59.098Z,92.30
2022-08-30T20:00:27.278Z,92.60
2022-08-30T20:02:58.819Z,92.50
2022-08-30T20:05:28.013Z,92.50
2022-08-30T20:07:55.169Z,92.60
2022-08-30T20:10:26.582Z,92.60
2022-08-30T20:12:54.905Z,92.70
2022-08-30T20:15:23.026Z,92.70
2022-08-30T20:18:05.035Z,92.80
2022-08-30T20:20:36.509Z,92.80
2022-08-30T20:23:30.306Z,92.80
2022-08-30T20:26:04.883Z,92.90
2022-08-30T20:28:32.453Z,92.90
2022-08-30T20:31:00.339Z,92.90
2022-08-30T20:33:28.487Z,92.90
2022-08-30T20:36:02.277Z,93.00
2022-08-30T20:38:32.125Z,93.00
2022-08-30T20:41:02.627Z,93.00
2022-08-30T20:43:31.650Z,93.00
2022-08-30T20:45:59.803Z,93.00
2022-08-30T20:48:28.900Z,93.10
2022-08-30T20:50:56.395Z,93.10
2022-08-30T20:53:24.360Z,93.20
2022-08-30T20:55:51.622Z,93.20
2022-08-30T20:58:18.918Z,93.30
2022-08-30T21:00:54.817Z,93.30
2022-08-30T21:03:26.289Z,93.30
2022-08-30T21:05:56.819Z,93.40
2022-08-30T21:08:24.975Z,93.40
2022-08-30T21:10:52.997Z,93.50
2022-08-30T21:13:21.154Z,93.50
2022-08-30T21:16:00.384Z,93.60
2022-08-30T21:18:32.897Z,93.60
2022-08-30T21:21:12.853Z,93.60
2022-08-30T21:23:40.674Z,93.60
2022-08-30T21:26:10.073Z,93.60
2022-08-30T21:28:37.589Z,93.70
2022-08-30T21:31:12.753Z,93.70
2022-08-30T21:33:41.555Z,93.70
2022-08-30T21:36:29.010Z,93.80
2022-08-30T21:39:00.858Z,93.80
2022-08-30T21:41:31.602Z,93.90
2022-08-30T21:44:04.857Z,93.90
2022-08-30T21:46:36.130Z,93.90
2022-08-30T21:49:08.553Z,93.90
2022-08-30T21:51:44.807Z,94.00
2022-08-30T21:54:15.130Z,94.00
2022-08-30T21:56:48.180Z,94.10
2022-08-30T21:59:16.682Z,94.20
2022-08-30T22:01:44.678Z,94.20
2022-08-30T22:04:14.100Z,94.20
2022-08-30T22:06:48.200Z,94.10
2022-08-30T22:09:20.732Z,94.10
2022-08-30T22:11:49.098Z,94.10
2022-08-30T22:14:19.986Z,94.20
2022-08-30T22:16:48.893Z,94.30
2022-08-30T22:19:22.405Z,94.30
2022-08-30T22:21:53.884Z,94.40
2022-08-30T22:24:32.418Z,94.40
2022-08-30T22:27:05.101Z,94.50
2022-08-30T22:29:33.305Z,94.50
2022-08-30T22:32:01.674Z,94.50
2022-08-30T22:34:32.265Z,94.50
2022-08-30T22:37:00.335Z,94.60
2022-08-30T22:39:28.136Z,94.70
2022-08-30T22:41:55.959Z,94.70
2022-08-30T22:44:23.227Z,94.80
2022-08-30T22:46:50.527Z,94.80
2022-08-30T22:49:18.223Z,95.00
2022-08-30T22:51:45.657Z,95.00
2022-08-30T22:54:13.034Z,95.10
2022-08-30T22:56:41.394Z,95.10
2022-08-30T22:59:09.261Z,95.00
2022-08-30T23:01:42.853Z,95.10
2022-08-30T23:04:12.881Z,95.10
2022-08-30T23:06:41.522Z,95.20
2022-08-30T23:09:17.998Z,95.30
2022-08-30T23:11:45.233Z,95.30
2022-08-30T23:14:12.439Z,95.40
2022-08-30T23:16:40.754Z,95.50
2022-08-30T23:19:08.268Z,95.60
2022-08-30T23:21:35.675Z,95.60
2022-08-30T23:24:27.460Z,95.60
2022-08-30T23:27:13.451Z,95.70
2022-08-30T23:29:59.879Z,95.80
2022-08-30T23:32:46.755Z,95.90
2022-08-30T23:35:33.377Z,96.00
2022-08-30T23:38:23.911Z,96.00
2022-08-30T23:41:11.120Z,96.00
2022-08-30T23:43:58.040Z,96.20
2022-08-30T23:46:54.493Z,95.90
2022-08-30T23:49:41.151Z,95.90
2022-08-30T23:52:27.517Z,96.00
2022-08-30T23:55:13.577Z,96.00
2022-08-30T23:58:00.569Z,96.00
